Terminal Aerodrome Forecast
Issued by NWS Quad Cities IA IL

Home | Current Version | Previous Version | Text Only | Print | Product List | Glossary On
Versions: 1 2 3 4 5 6 7 8 9 10 11 12 13 14 15 16 17 18 19 20 21 22 23 24 25 26 27 28 29 30 31 32 33 34 35
000
FTUS43 KDVN 280400 AAB
TAFDBQ
TAF AMD
KDBQ 280400Z 2804/2824 17013KT P6SM VCSH SCT025 OVC040
     FM280600 18007KT 5SM SHRA BR OVC035
     FM281000 20005KT 6SM BR VCSH BKN025
     FM281600 22010KT P6SM BKN035 PROB30 2821/2824 4SM TSRA
      BKN025CB=

USA.gov is the U.S. government's official web portal to all federal, state and local government web resources and services.